createdAt,value
2023-03-06T00:00:47.159Z,2.25
2023-03-06T00:03:49.158Z,2.67
2023-03-06T00:06:51.987Z,1.77
2023-03-06T00:09:54.511Z,1.77
2023-03-06T00:12:56.960Z,2.03
2023-03-06T00:15:59.189Z,2.95
2023-03-06T00:19:01.655Z,2.53
2023-03-06T00:22:05.161Z,2.40
2023-03-06T00:25:08.289Z,2.40
2023-03-06T00:28:11.836Z,2.10
2023-03-06T00:31:14.210Z,1.63
2023-03-06T00:34:16.912Z,2.05
2023-03-06T00:37:21.503Z,2.38
2023-03-06T00:40:25.114Z,2.13
2023-03-06T00:43:28.297Z,2.90
2023-03-06T00:46:30.860Z,2.42
2023-03-06T00:49:33.676Z,2.95
2023-03-06T00:52:36.194Z,2.70
2023-03-06T00:55:38.685Z,3.10
2023-03-06T00:58:42.035Z,2.35
2023-03-06T01:01:44.805Z,1.77
2023-03-06T01:04:49.115Z,1.67
2023-03-06T01:07:52.604Z,1.83
2023-03-06T01:10:55.275Z,2.50
2023-03-06T01:13:58.032Z,2.00
2023-03-06T01:17:01.209Z,1.58
2023-03-06T01:20:04.242Z,2.03
2023-03-06T01:23:07.309Z,2.20
2023-03-06T01:26:10.605Z,1.92
2023-03-06T01:29:13.384Z,1.98
2023-03-06T01:32:16.541Z,4.32
2023-03-06T01:35:19.206Z,1.52
2023-03-06T01:38:21.602Z,1.70
2023-03-06T01:41:25.797Z,1.85
2023-03-06T01:44:28.338Z,1.92
2023-03-06T01:47:31.672Z,1.85
2023-03-06T01:50:34.627Z,2.72
2023-03-06T01:53:38.631Z,2.38
2023-03-06T01:56:40.830Z,2.60
2023-03-06T01:59:43.437Z,2.22
2023-03-06T02:02:45.867Z,2.08
2023-03-06T02:05:48.914Z,2.30
2023-03-06T02:08:51.465Z,2.28
2023-03-06T02:11:53.786Z,2.03
2023-03-06T02:14:55.825Z,1.92
2023-03-06T02:17:58.726Z,1.95
2023-03-06T02:21:01.632Z,1.80
2023-03-06T02:24:04.740Z,2.42
2023-03-06T02:27:09.080Z,1.80
2023-03-06T02:30:12.782Z,1.73
2023-03-06T02:33:15.008Z,2.10
2023-03-06T02:36:17.405Z,1.77
2023-03-06T02:39:21.457Z,2.08
2023-03-06T02:42:24.577Z,2.08
2023-03-06T02:45:28.969Z,2.15
2023-03-06T02:48:32.312Z,2.33
2023-03-06T02:51:35.141Z,1.92
2023-03-06T02:54:37.532Z,2.05
2023-03-06T02:57:41.866Z,2.17
2023-03-06T03:00:45.309Z,2.33
2023-03-06T03:03:48.914Z,2.35
2023-03-06T03:06:51.417Z,1.98
2023-03-06T03:09:54.134Z,2.50
2023-03-06T03:12:56.790Z,3.03
2023-03-06T03:15:59.880Z,2.65
2023-03-06T03:19:02.197Z,2.47
2023-03-06T03:22:05.970Z,2.97
2023-03-06T03:25:08.623Z,2.42
2023-03-06T03:28:12.107Z,2.33
2023-03-06T03:31:15.041Z,2.13
2023-03-06T03:34:18.067Z,3.45
2023-03-06T03:37:22.442Z,2.60
2023-03-06T03:40:26.605Z,2.15
2023-03-06T03:43:28.982Z,2.95
2023-03-06T03:46:32.634Z,2.55
2023-03-06T03:49:36.756Z,2.65
2023-03-06T03:52:39.494Z,2.20
2023-03-06T03:55:43.406Z,2.50
2023-03-06T03:58:46.158Z,2.28
2023-03-06T04:01:49.225Z,2.72
2023-03-06T04:04:52.756Z,2.70
2023-03-06T04:07:55.626Z,3.28
2023-03-06T04:10:57.888Z,2.15
2023-03-06T04:14:00.757Z,2.97
2023-03-06T04:17:03.441Z,2.67
2023-03-06T04:20:07.081Z,3.13
2023-03-06T04:23:09.791Z,2.60
2023-03-06T04:26:12.916Z,3.05
2023-03-06T04:29:15.309Z,3.00
2023-03-06T04:32:21.261Z,3.38
2023-03-06T04:35:24.124Z,3.28
2023-03-06T04:38:33.572Z,3.05
2023-03-06T04:41:38.874Z,3.60
2023-03-06T04:44:42.413Z,3.35
2023-03-06T04:47:45.368Z,3.00
2023-03-06T04:50:48.410Z,3.55
2023-03-06T04:53:51.283Z,3.42
2023-03-06T04:56:54.854Z,3.63
2023-03-06T04:59:58.351Z,3.28
2023-03-06T05:03:01.440Z,3.53
2023-03-06T05:06:04.396Z,2.80
2023-03-06T05:09:07.096Z,3.50
2023-03-06T05:12:09.510Z,2.85
2023-03-06T05:15:12.250Z,2.50
2023-03-06T05:18:15.361Z,2.60
2023-03-06T05:21:20.858Z,2.83
2023-03-06T05:24:23.729Z,2.67
2023-03-06T05:27:26.256Z,2.78
2023-03-06T05:30:29.362Z,2.90
2023-03-06T05:33:32.172Z,2.67
2023-03-06T05:36:35.089Z,2.33
2023-03-06T05:39:37.348Z,3.17
2023-03-06T05:42:39.564Z,2.92
2023-03-06T05:45:42.630Z,2.65
2023-03-06T05:48:46.942Z,3.05
2023-03-06T05:51:49.953Z,2.83
2023-03-06T05:54:53.401Z,2.90
2023-03-06T05:57:55.981Z,3.88
2023-03-06T06:00:59.065Z,3.13
2023-03-06T06:04:02.355Z,3.80
2023-03-06T06:07:06.138Z,3.13
2023-03-06T06:10:09.141Z,2.63
2023-03-06T06:13:11.450Z,3.75
2023-03-06T06:16:13.552Z,2.95
2023-03-06T06:19:15.941Z,4.45
2023-03-06T06:22:18.544Z,3.35
2023-03-06T06:25:21.330Z,2.97
2023-03-06T06:28:23.863Z,4.50
2023-03-06T06:31:27.057Z,3.00
2023-03-06T06:34:29.710Z,2.95
2023-03-06T06:37:32.400Z,3.22
2023-03-06T06:40:35.159Z,2.75
2023-03-06T06:43:37.806Z,3.35
2023-03-06T06:47:20.653Z,3.05
2023-03-06T06:50:03.276Z,2.83
2023-03-06T06:53:06.504Z,2.85
2023-03-06T06:56:09.453Z,2.67
2023-03-06T06:59:16.975Z,2.70
2023-03-06T07:02:20.310Z,2.83
2023-03-06T07:05:23.419Z,2.30
2023-03-06T07:08:25.671Z,2.13
2023-03-06T07:11:28.008Z,2.30
2023-03-06T07:14:31.115Z,2.03
2023-03-06T07:17:34.209Z,1.60
2023-03-06T07:20:36.956Z,2.40
2023-03-06T07:23:39.545Z,3.70
2023-03-06T07:26:42.746Z,1.95
2023-03-06T07:29:48.502Z,2.40
2023-03-06T07:32:51.217Z,2.47
2023-03-06T07:35:53.859Z,2.03
2023-03-06T07:38:56.477Z,1.80
2023-03-06T07:41:59.289Z,2.00
2023-03-06T07:45:02.081Z,2.30
2023-03-06T07:48:05.631Z,1.92
2023-03-06T07:51:08.690Z,1.55
2023-03-06T07:54:10.988Z,1.92
2023-03-06T07:57:13.233Z,1.50
2023-03-06T08:00:16.607Z,1.77
2023-03-06T08:03:19.943Z,2.13
2023-03-06T08:06:23.473Z,1.88
2023-03-06T08:09:27.639Z,1.90
2023-03-06T08:12:30.902Z,1.20
2023-03-06T08:15:33.724Z,1.70
2023-03-06T08:18:37.320Z,2.20
2023-03-06T08:21:40.531Z,1.52
2023-03-06T08:24:43.856Z,1.45
2023-03-06T08:27:46.715Z,1.58
2023-03-06T08:30:50.433Z,1.25
2023-03-06T08:33:53.286Z,1.15
2023-03-06T08:36:57.101Z,1.20
2023-03-06T08:39:59.699Z,1.60
2023-03-06T08:43:02.305Z,1.52
2023-03-06T08:46:05.123Z,1.25
2023-03-06T08:49:07.379Z,1.17
2023-03-06T08:52:10.069Z,1.63
2023-03-06T08:55:14.792Z,0.80
2023-03-06T08:58:17.686Z,1.63
2023-03-06T09:01:20.033Z,1.20
2023-03-06T09:04:22.367Z,1.10
2023-03-06T09:07:25.549Z,1.05
2023-03-06T09:10:29.511Z,1.23
2023-03-06T09:13:32.747Z,2.03
2023-03-06T09:16:35.056Z,1.35
2023-03-06T09:19:37.819Z,1.27
2023-03-06T09:22:40.813Z,0.80
2023-03-06T09:25:44.184Z,1.15
2023-03-06T09:28:47.992Z,0.98
2023-03-06T09:31:51.483Z,0.85
2023-03-06T09:34:54.913Z,0.90
2023-03-06T09:37:57.527Z,0.60
2023-03-06T09:41:00.145Z,0.38
2023-03-06T09:44:02.456Z,0.52
2023-03-06T09:47:05.230Z,0.57
2023-03-06T09:50:08.245Z,0.50
2023-03-06T09:53:11.362Z,0.90
2023-03-06T09:56:14.731Z,0.60
2023-03-06T09:59:17.702Z,0.65
2023-03-06T10:02:20.570Z,0.70
2023-03-06T10:05:23.701Z,0.55
2023-03-06T10:08:26.966Z,0.50
2023-03-06T10:11:30.466Z,0.55
2023-03-06T10:14:33.623Z,1.20
2023-03-06T10:17:37.145Z,0.40
2023-03-06T10:20:39.981Z,0.43
2023-03-06T10:23:42.586Z,0.75
2023-03-06T10:26:45.507Z,0.82
2023-03-06T10:30:01.693Z,0.90
2023-03-06T10:33:05.236Z,0.73
2023-03-06T10:36:08.422Z,0.47
2023-03-06T10:39:11.200Z,0.30
2023-03-06T10:42:14.070Z,0.35
2023-03-06T10:45:17.163Z,0.50
2023-03-06T10:48:20.122Z,1.15
2023-03-06T10:51:24.049Z,0.77
2023-03-06T10:54:27.778Z,0.50
2023-03-06T10:57:30.304Z,1.08
2023-03-06T11:00:32.599Z,0.45
2023-03-06T11:03:35.268Z,0.77
2023-03-06T11:06:38.641Z,0.90
2023-03-06T11:09:41.209Z,0.68
2023-03-06T11:12:43.412Z,0.25
2023-03-06T11:15:45.824Z,0.55
2023-03-06T11:18:49.322Z,1.00
2023-03-06T11:21:53.172Z,0.45
2023-03-06T11:24:56.097Z,0.28
2023-03-06T11:27:58.354Z,0.35
2023-03-06T11:31:01.089Z,0.22
2023-03-06T11:34:04.142Z,0.55
2023-03-06T11:37:07.151Z,0.32
2023-03-06T11:40:10.196Z,0.15
2023-03-06T11:43:13.185Z,0.32
2023-03-06T11:46:16.314Z,0.60
2023-03-06T11:49:19.492Z,0.70
2023-03-06T11:52:22.871Z,0.65
2023-03-06T11:55:25.432Z,0.75
2023-03-06T11:58:28.118Z,1.00
2023-03-06T12:01:31.972Z,1.20
2023-03-06T12:04:35.617Z,1.35
2023-03-06T12:07:38.704Z,0.65
2023-03-06T12:10:41.718Z,0.38
2023-03-06T12:13:44.672Z,0.60
2023-03-06T12:16:47.397Z,0.47
2023-03-06T12:19:50.842Z,0.50
2023-03-06T12:22:57.722Z,0.73
2023-03-06T12:26:00.840Z,1.08
2023-03-06T12:29:03.489Z,0.90
2023-03-06T12:32:06.233Z,0.40
2023-03-06T12:35:10.265Z,0.32
2023-03-06T12:38:13.686Z,0.85
2023-03-06T12:41:15.658Z,1.17
2023-03-06T12:44:18.437Z,0.47
2023-03-06T12:47:21.149Z,1.17
2023-03-06T12:50:23.753Z,0.38
2023-03-06T12:53:27.012Z,0.40
2023-03-06T12:56:29.843Z,0.70
2023-03-06T12:59:32.866Z,0.35
2023-03-06T13:02:35.543Z,0.30
2023-03-06T13:05:38.678Z,0.40
2023-03-06T13:08:42.697Z,0.88
2023-03-06T13:11:46.629Z,1.02
2023-03-06T13:14:54.690Z,0.60
2023-03-06T13:17:57.387Z,0.63
2023-03-06T13:21:00.076Z,0.73
2023-03-06T13:24:03.638Z,0.70
2023-03-06T13:27:06.758Z,0.43
2023-03-06T13:30:10.137Z,0.52
2023-03-06T13:33:13.404Z,1.00
2023-03-06T13:36:16.825Z,0.77
2023-03-06T13:39:20.347Z,0.93
2023-03-06T13:42:23.337Z,0.75
2023-03-06T13:45:25.809Z,0.50
2023-03-06T13:48:45.864Z,0.80
2023-03-06T13:51:48.516Z,0.77
2023-03-06T13:54:51.407Z,0.82
2023-03-06T13:57:54.424Z,0.57
2023-03-06T14:00:57.828Z,1.10
2023-03-06T14:04:01.379Z,1.23
2023-03-06T14:07:05.563Z,0.80
2023-03-06T14:10:09.776Z,1.20
2023-03-06T14:13:13.618Z,1.20
2023-03-06T14:16:16.389Z,1.67
2023-03-06T14:19:19.541Z,1.40
2023-03-06T14:22:22.323Z,1.52
2023-03-06T14:25:24.713Z,1.17
2023-03-06T14:28:28.135Z,2.20
2023-03-06T14:31:30.343Z,1.30
2023-03-06T14:34:32.831Z,1.05
2023-03-06T14:37:35.837Z,1.85
2023-03-06T14:40:38.567Z,2.22
2023-03-06T14:43:41.316Z,2.35
2023-03-06T14:46:44.891Z,1.80
2023-03-06T14:49:48.378Z,2.20
2023-03-06T14:52:51.451Z,2.25
2023-03-06T14:55:54.021Z,2.28
2023-03-06T14:58:57.366Z,1.77
2023-03-06T15:02:01.071Z,2.05
2023-03-06T15:05:04.798Z,2.33
2023-03-06T15:08:07.773Z,2.05
2023-03-06T15:11:11.255Z,1.85
2023-03-06T15:14:14.672Z,2.20
2023-03-06T15:17:17.342Z,2.50
2023-03-06T15:20:21.283Z,2.55
2023-03-06T15:23:24.797Z,2.90
2023-03-06T15:26:29.267Z,2.22
2023-03-06T15:29:33.078Z,2.08
2023-03-06T15:32:36.364Z,2.70
2023-03-06T15:35:39.864Z,2.00
2023-03-06T15:38:42.969Z,2.47
2023-03-06T15:41:46.739Z,2.22
2023-03-06T15:44:49.993Z,2.28
2023-03-06T15:47:53.033Z,2.30
2023-03-06T15:50:55.867Z,2.47
2023-03-06T15:54:11.311Z,2.90
2023-03-06T15:57:15.352Z,2.40
2023-03-06T16:00:27.048Z,2.53
2023-03-06T16:03:30.094Z,2.20
2023-03-06T16:06:32.728Z,3.05
2023-03-06T16:09:35.010Z,3.17
2023-03-06T16:12:37.494Z,2.95
2023-03-06T16:15:40.717Z,3.08
2023-03-06T16:18:44.538Z,2.30
2023-03-06T16:21:47.969Z,2.65
2023-03-06T16:24:51.534Z,2.58
2023-03-06T16:27:54.492Z,2.95
2023-03-06T16:30:57.525Z,2.60
2023-03-06T16:34:00.398Z,3.30
2023-03-06T16:37:03.422Z,2.40
2023-03-06T16:40:06.293Z,2.67
2023-03-06T16:43:10.206Z,3.60
2023-03-06T16:46:13.320Z,3.17
2023-03-06T16:49:16.423Z,3.40
2023-03-06T16:52:19.994Z,3.90
2023-03-06T16:55:22.239Z,3.53
2023-03-06T16:58:25.276Z,3.40
2023-03-06T17:01:28.315Z,3.22
2023-03-06T17:04:30.622Z,3.55
2023-03-06T17:07:33.362Z,4.25
2023-03-06T17:10:36.050Z,4.28
2023-03-06T17:13:38.360Z,3.88
2023-03-06T17:16:41.119Z,4.22
2023-03-06T17:19:44.396Z,5.13
2023-03-06T17:22:46.964Z,4.05
2023-03-06T17:25:50.103Z,4.10
2023-03-06T17:28:53.021Z,4.72
2023-03-06T17:31:55.700Z,4.72
2023-03-06T17:34:57.968Z,4.35
2023-03-06T17:38:00.511Z,4.68
2023-03-06T17:41:03.380Z,5.30
2023-03-06T17:44:06.531Z,5.72
2023-03-06T17:47:09.241Z,5.78
2023-03-06T17:50:12.299Z,6.90
2023-03-06T17:53:14.545Z,6.15
2023-03-06T17:56:16.745Z,5.93
2023-03-06T17:59:19.035Z,5.78
2023-03-06T18:02:21.826Z,5.85
2023-03-06T18:05:25.076Z,7.13
2023-03-06T18:08:28.638Z,6.20
2023-03-06T18:11:32.329Z,6.97
2023-03-06T18:14:34.874Z,5.93
2023-03-06T18:17:37.992Z,5.97
2023-03-06T18:20:41.284Z,6.85
2023-03-06T18:23:43.984Z,6.20
2023-03-06T18:26:46.709Z,5.90
2023-03-06T18:29:49.651Z,6.13
2023-03-06T18:32:52.557Z,6.05
2023-03-06T18:35:55.404Z,6.65
2023-03-06T18:38:58.475Z,5.57
2023-03-06T18:42:01.406Z,6.85
2023-03-06T18:45:03.650Z,7.25
2023-03-06T18:48:06.057Z,7.35
2023-03-06T18:51:08.542Z,7.15
2023-03-06T18:54:11.535Z,7.47
2023-03-06T18:57:14.322Z,8.27
2023-03-06T19:00:17.201Z,7.97
2023-03-06T19:03:20.945Z,8.23
2023-03-06T19:06:24.589Z,6.93
2023-03-06T19:09:27.452Z,7.70
2023-03-06T19:12:30.655Z,7.80
2023-03-06T19:15:33.640Z,7.68
2023-03-06T19:18:36.735Z,9.32
2023-03-06T19:21:40.236Z,8.55
2023-03-06T19:24:43.412Z,8.95
2023-03-06T19:27:47.388Z,8.75
2023-03-06T19:30:50.984Z,8.70
2023-03-06T19:33:53.591Z,9.93
2023-03-06T19:36:56.567Z,10.43
2023-03-06T19:39:59.184Z,8.95
2023-03-06T19:43:01.710Z,9.95
2023-03-06T19:46:04.791Z,9.93
2023-03-06T19:49:07.833Z,10.40
2023-03-06T19:52:10.984Z,9.45
2023-03-06T19:55:13.810Z,9.68
2023-03-06T19:58:16.698Z,10.50
2023-03-06T20:01:20.326Z,9.23
2023-03-06T20:04:23.544Z,9.55
2023-03-06T20:07:26.800Z,8.10
2023-03-06T20:10:29.708Z,8.35
2023-03-06T20:13:32.498Z,8.75
2023-03-06T20:16:35.200Z,8.10
2023-03-06T20:19:38.335Z,7.35
2023-03-06T20:22:42.185Z,8.55
2023-03-06T20:25:45.629Z,7.82
2023-03-06T20:28:48.601Z,8.07
2023-03-06T20:31:50.826Z,6.68
2023-03-06T20:34:53.137Z,8.65
2023-03-06T20:37:55.797Z,9.20
2023-03-06T20:40:58.453Z,8.23
2023-03-06T20:44:01.924Z,8.20
2023-03-06T20:47:04.892Z,8.90
2023-03-06T20:50:07.597Z,9.20
2023-03-06T20:53:10.374Z,10.25
2023-03-06T20:56:13.404Z,8.65
2023-03-06T20:59:16.314Z,9.30
2023-03-06T21:02:18.910Z,9.88
2023-03-06T21:05:22.037Z,9.30
2023-03-06T21:08:24.826Z,9.25
2023-03-06T21:11:27.386Z,10.70
2023-03-06T21:14:30.503Z,9.65
2023-03-06T21:17:33.302Z,10.30
2023-03-06T21:20:36.466Z,9.63
2023-03-06T21:23:40.077Z,10.05
2023-03-06T21:26:43.028Z,9.73
2023-03-06T21:29:46.058Z,11.07
2023-03-06T21:32:48.947Z,10.90
2023-03-06T21:35:52.498Z,10.00
2023-03-06T21:38:54.557Z,10.10
2023-03-06T21:41:57.324Z,10.45
2023-03-06T21:45:00.141Z,10.98
2023-03-06T21:48:02.919Z,11.35
2023-03-06T21:51:05.737Z,11.02
2023-03-06T21:54:08.268Z,10.38
2023-03-06T21:57:10.954Z,10.63
2023-03-06T22:00:13.420Z,10.65
2023-03-06T22:03:16.171Z,10.45
2023-03-06T22:06:19.248Z,9.20
2023-03-06T22:09:22.879Z,8.30
2023-03-06T22:12:26.271Z,8.70
2023-03-06T22:15:29.779Z,8.55
2023-03-06T22:18:32.881Z,8.18
2023-03-06T22:21:35.839Z,7.75
2023-03-06T22:24:38.360Z,7.15
2023-03-06T22:27:41.133Z,7.40
2023-03-06T22:30:43.910Z,7.32
2023-03-06T22:33:46.661Z,6.22
2023-03-06T22:36:49.903Z,6.35
2023-03-06T22:39:52.788Z,6.30
2023-03-06T22:42:55.708Z,6.55
2023-03-06T22:45:59.290Z,6.20
2023-03-06T22:49:03.130Z,6.65
2023-03-06T22:52:06.097Z,6.13
2023-03-06T22:55:09.300Z,6.15
2023-03-06T22:58:12.792Z,6.45
2023-03-06T23:01:15.522Z,5.88
2023-03-06T23:04:18.772Z,5.28
2023-03-06T23:07:21.969Z,5.25
2023-03-06T23:10:26.736Z,5.75
2023-03-06T23:13:48.830Z,6.28
2023-03-06T23:17:10.043Z,4.53
2023-03-06T23:20:32.214Z,4.68
2023-03-06T23:23:54.505Z,5.03
2023-03-06T23:26:56.967Z,4.70
2023-03-06T23:29:59.646Z,4.43
2023-03-06T23:33:02.538Z,4.70
2023-03-06T23:36:05.693Z,4.68
2023-03-06T23:39:09.252Z,4.40
2023-03-06T23:42:11.849Z,4.07
2023-03-06T23:45:14.548Z,4.60
2023-03-06T23:48:17.573Z,4.28
2023-03-06T23:51:20.528Z,4.15
2023-03-06T23:54:23.606Z,3.88
2023-03-06T23:57:26.931Z,4.60
